sensor_id;sensor_type;location;lat;lon;timestamp;P1;durP1;ratioP1;P2;durP2;ratioP2
66800;SDS011;53703;50.326;19.122;2023-09-19T00:03:06;18.20;;;10.80;;
66800;SDS011;53703;50.326;19.122;2023-09-19T00:07:14;16.40;;;10.00;;
66800;SDS011;53703;50.326;19.122;2023-09-19T00:10:09;16.70;;;9.80;;
66800;SDS011;53703;50.326;19.122;2023-09-19T00:13:04;17.60;;;10.50;;
66800;SDS011;53703;50.326;19.122;2023-09-19T00:15:59;15.30;;;9.80;;
66800;SDS011;53703;50.326;19.122;2023-09-19T00:18:54;17.40;;;10.20;;
66800;SDS011;53703;50.326;19.122;2023-09-19T00:21:34;20.70;;;10.20;;
66800;SDS011;53703;50.326;19.122;2023-09-19T00:27:08;16.50;;;10.40;;
66800;SDS011;53703;50.326;19.122;2023-09-19T00:30:21;16.70;;;10.20;;
66800;SDS011;53703;50.326;19.122;2023-09-19T00:33:16;16.30;;;10.30;;
66800;SDS011;53703;50.326;19.122;2023-09-19T00:36:12;15.90;;;10.40;;
66800;SDS011;53703;50.326;19.122;2023-09-19T00:39:07;16.70;;;10.50;;
66800;SDS011;53703;50.326;19.122;2023-09-19T00:42:02;15.80;;;10.00;;
66800;SDS011;53703;50.326;19.122;2023-09-19T00:44:59;15.80;;;10.30;;
66800;SDS011;53703;50.326;19.122;2023-09-19T00:47:54;15.40;;;10.30;;
66800;SDS011;53703;50.326;19.122;2023-09-19T00:50:49;17.60;;;11.00;;
66800;SDS011;53703;50.326;19.122;2023-09-19T00:53:45;15.00;;;9.90;;
66800;SDS011;53703;50.326;19.122;2023-09-19T00:56:25;16.60;;;10.20;;
66800;SDS011;53703;50.326;19.122;2023-09-19T00:59:20;17.00;;;10.10;;
66800;SDS011;53703;50.326;19.122;2023-09-19T01:02:15;16.20;;;10.90;;
66800;SDS011;53703;50.326;19.122;2023-09-19T01:04:55;16.80;;;10.10;;
66800;SDS011;53703;50.326;19.122;2023-09-19T01:07:50;17.80;;;10.30;;
66800;SDS011;53703;50.326;19.122;2023-09-19T01:10:46;15.20;;;9.90;;
66800;SDS011;53703;50.326;19.122;2023-09-19T01:13:55;17.40;;;10.70;;
66800;SDS011;53703;50.326;19.122;2023-09-19T01:17:00;16.00;;;10.30;;
66800;SDS011;53703;50.326;19.122;2023-09-19T01:20:17;17.30;;;10.50;;
66800;SDS011;53703;50.326;19.122;2023-09-19T01:23:22;15.70;;;10.40;;
66800;SDS011;53703;50.326;19.122;2023-09-19T01:26:10;17.90;;;10.30;;
66800;SDS011;53703;50.326;19.122;2023-09-19T01:29:22;16.10;;;10.00;;
66800;SDS011;53703;50.326;19.122;2023-09-19T01:32:25;15.40;;;9.50;;
66800;SDS011;53703;50.326;19.122;2023-09-19T01:35:21;15.90;;;9.90;;
66800;SDS011;53703;50.326;19.122;2023-09-19T01:38:15;16.90;;;10.00;;
66800;SDS011;53703;50.326;19.122;2023-09-19T01:41:12;15.10;;;9.80;;
66800;SDS011;53703;50.326;19.122;2023-09-19T01:44:19;17.10;;;10.10;;
66800;SDS011;53703;50.326;19.122;2023-09-19T01:47:23;16.00;;;10.20;;
66800;SDS011;53703;50.326;19.122;2023-09-19T01:50:44;14.90;;;9.60;;
66800;SDS011;53703;50.326;19.122;2023-09-19T01:53:51;16.00;;;9.50;;
66800;SDS011;53703;50.326;19.122;2023-09-19T01:56:53;14.70;;;9.60;;
66800;SDS011;53703;50.326;19.122;2023-09-19T01:59:54;14.90;;;9.70;;
66800;SDS011;53703;50.326;19.122;2023-09-19T02:02:57;16.80;;;10.10;;
66800;SDS011;53703;50.326;19.122;2023-09-19T02:05:40;14.50;;;10.10;;
66800;SDS011;53703;50.326;19.122;2023-09-19T02:08:41;14.00;;;9.70;;
66800;SDS011;53703;50.326;19.122;2023-09-19T02:11:36;14.60;;;9.80;;
66800;SDS011;53703;50.326;19.122;2023-09-19T02:14:30;14.80;;;10.00;;
66800;SDS011;53703;50.326;19.122;2023-09-19T02:17:27;14.60;;;9.20;;
66800;SDS011;53703;50.326;19.122;2023-09-19T02:20:22;15.30;;;9.90;;
66800;SDS011;53703;50.326;19.122;2023-09-19T02:23:17;15.40;;;9.70;;
66800;SDS011;53703;50.326;19.122;2023-09-19T02:26:11;14.40;;;9.40;;
66800;SDS011;53703;50.326;19.122;2023-09-19T02:29:05;15.80;;;9.90;;
66800;SDS011;53703;50.326;19.122;2023-09-19T02:31:59;16.20;;;9.90;;
66800;SDS011;53703;50.326;19.122;2023-09-19T02:34:55;15.40;;;9.20;;
66800;SDS011;53703;50.326;19.122;2023-09-19T02:37:35;16.90;;;10.50;;
66800;SDS011;53703;50.326;19.122;2023-09-19T02:40:29;16.60;;;9.80;;
66800;SDS011;53703;50.326;19.122;2023-09-19T02:43:27;15.00;;;9.70;;
66800;SDS011;53703;50.326;19.122;2023-09-19T02:46:07;15.00;;;10.10;;
66800;SDS011;53703;50.326;19.122;2023-09-19T02:49:03;14.80;;;9.20;;
66800;SDS011;53703;50.326;19.122;2023-09-19T02:51:58;16.50;;;9.40;;
66800;SDS011;53703;50.326;19.122;2023-09-19T02:54:52;16.00;;;10.00;;
66800;SDS011;53703;50.326;19.122;2023-09-19T02:57:48;16.40;;;9.90;;
66800;SDS011;53703;50.326;19.122;2023-09-19T03:00:45;16.50;;;9.70;;
66800;SDS011;53703;50.326;19.122;2023-09-19T03:03:42;16.20;;;10.10;;
66800;SDS011;53703;50.326;19.122;2023-09-19T03:06:37;17.50;;;10.00;;
66800;SDS011;53703;50.326;19.122;2023-09-19T03:09:31;15.80;;;10.00;;
66800;SDS011;53703;50.326;19.122;2023-09-19T03:12:25;17.00;;;10.20;;
66800;SDS011;53703;50.326;19.122;2023-09-19T03:15:06;17.40;;;10.50;;
66800;SDS011;53703;50.326;19.122;2023-09-19T03:17:51;17.00;;;10.60;;
66800;SDS011;53703;50.326;19.122;2023-09-19T03:20:45;17.70;;;10.00;;
66800;SDS011;53703;50.326;19.122;2023-09-19T03:23:47;16.80;;;10.50;;
66800;SDS011;53703;50.326;19.122;2023-09-19T03:26:41;16.90;;;10.30;;
66800;SDS011;53703;50.326;19.122;2023-09-19T03:29:33;15.30;;;9.70;;
66800;SDS011;53703;50.326;19.122;2023-09-19T03:32:27;16.40;;;9.90;;
66800;SDS011;53703;50.326;19.122;2023-09-19T03:35:07;14.70;;;9.90;;
66800;SDS011;53703;50.326;19.122;2023-09-19T03:38:05;16.80;;;10.10;;
66800;SDS011;53703;50.326;19.122;2023-09-19T03:40:59;19.50;;;10.20;;
66800;SDS011;53703;50.326;19.122;2023-09-19T03:43:53;15.50;;;9.60;;
66800;SDS011;53703;50.326;19.122;2023-09-19T03:46:49;17.10;;;9.80;;
66800;SDS011;53703;50.326;19.122;2023-09-19T03:49:43;15.00;;;9.70;;
66800;SDS011;53703;50.326;19.122;2023-09-19T03:52:37;17.70;;;10.90;;
66800;SDS011;53703;50.326;19.122;2023-09-19T03:55:31;13.70;;;9.70;;
66800;SDS011;53703;50.326;19.122;2023-09-19T03:58:26;18.10;;;10.60;;
66800;SDS011;53703;50.326;19.122;2023-09-19T04:01:20;16.10;;;9.80;;
66800;SDS011;53703;50.326;19.122;2023-09-19T04:04:15;15.70;;;9.90;;
66800;SDS011;53703;50.326;19.122;2023-09-19T04:07:11;16.60;;;10.20;;
66800;SDS011;53703;50.326;19.122;2023-09-19T04:10:06;17.40;;;10.40;;
66800;SDS011;53703;50.326;19.122;2023-09-19T04:13:02;17.80;;;10.60;;
66800;SDS011;53703;50.326;19.122;2023-09-19T04:15:58;17.00;;;10.30;;
66800;SDS011;53703;50.326;19.122;2023-09-19T04:18:53;17.00;;;10.50;;
66800;SDS011;53703;50.326;19.122;2023-09-19T04:21:33;18.80;;;10.70;;
66800;SDS011;53703;50.326;19.122;2023-09-19T04:24:28;16.60;;;10.80;;
66800;SDS011;53703;50.326;19.122;2023-09-19T04:27:23;18.60;;;10.50;;
66800;SDS011;53703;50.326;19.122;2023-09-19T04:30:03;17.50;;;11.10;;
66800;SDS011;53703;50.326;19.122;2023-09-19T04:33:01;18.00;;;11.40;;
66800;SDS011;53703;50.326;19.122;2023-09-19T04:35:58;16.20;;;10.70;;
66800;SDS011;53703;50.326;19.122;2023-09-19T04:38:48;16.00;;;10.00;;
66800;SDS011;53703;50.326;19.122;2023-09-19T04:41:28;17.40;;;11.40;;
66800;SDS011;53703;50.326;19.122;2023-09-19T04:44:22;17.00;;;10.60;;
66800;SDS011;53703;50.326;19.122;2023-09-19T04:47:17;17.40;;;11.40;;
66800;SDS011;53703;50.326;19.122;2023-09-19T04:50:12;17.50;;;11.20;;
66800;SDS011;53703;50.326;19.122;2023-09-19T04:53:08;20.90;;;11.30;;
66800;SDS011;53703;50.326;19.122;2023-09-19T04:56:05;18.80;;;11.50;;
66800;SDS011;53703;50.326;19.122;2023-09-19T04:58:59;18.60;;;11.40;;
66800;SDS011;53703;50.326;19.122;2023-09-19T05:01:56;16.80;;;11.30;;
66800;SDS011;53703;50.326;19.122;2023-09-19T05:04:50;23.40;;;11.90;;
66800;SDS011;53703;50.326;19.122;2023-09-19T05:07:45;18.90;;;12.00;;
66800;SDS011;53703;50.326;19.122;2023-09-19T05:10:39;20.00;;;11.90;;
66800;SDS011;53703;50.326;19.122;2023-09-19T05:13:24;20.90;;;11.70;;
66800;SDS011;53703;50.326;19.122;2023-09-19T05:16:18;22.70;;;12.10;;
66800;SDS011;53703;50.326;19.122;2023-09-19T05:18:58;19.70;;;12.20;;
66800;SDS011;53703;50.326;19.122;2023-09-19T05:21:52;22.70;;;12.40;;
66800;SDS011;53703;50.326;19.122;2023-09-19T05:24:46;22.10;;;13.10;;
66800;SDS011;53703;50.326;19.122;2023-09-19T05:27:41;19.90;;;11.70;;
66800;SDS011;53703;50.326;19.122;2023-09-19T05:30:36;22.00;;;12.60;;
66800;SDS011;53703;50.326;19.122;2023-09-19T05:33:31;20.70;;;12.40;;
66800;SDS011;53703;50.326;19.122;2023-09-19T05:36:11;22.30;;;12.60;;
66800;SDS011;53703;50.326;19.122;2023-09-19T05:39:06;21.00;;;11.90;;
66800;SDS011;53703;50.326;19.122;2023-09-19T05:42:00;21.50;;;12.60;;
66800;SDS011;53703;50.326;19.122;2023-09-19T05:44:38;23.60;;;12.70;;
66800;SDS011;53703;50.326;19.122;2023-09-19T05:47:32;21.90;;;12.60;;
66800;SDS011;53703;50.326;19.122;2023-09-19T05:50:27;20.30;;;13.10;;
66800;SDS011;53703;50.326;19.122;2023-09-19T05:53:21;21.40;;;13.20;;
66800;SDS011;53703;50.326;19.122;2023-09-19T05:56:15;20.60;;;13.10;;
66800;SDS011;53703;50.326;19.122;2023-09-19T05:59:10;24.80;;;14.10;;
66800;SDS011;53703;50.326;19.122;2023-09-19T06:01:55;24.40;;;14.90;;
66800;SDS011;53703;50.326;19.122;2023-09-19T06:04:50;22.00;;;13.50;;
66800;SDS011;53703;50.326;19.122;2023-09-19T06:07:32;26.30;;;15.50;;
66800;SDS011;53703;50.326;19.122;2023-09-19T06:10:28;26.00;;;13.90;;
66800;SDS011;53703;50.326;19.122;2023-09-19T06:13:06;23.60;;;13.90;;
66800;SDS011;53703;50.326;19.122;2023-09-19T06:16:02;22.00;;;12.60;;
66800;SDS011;53703;50.326;19.122;2023-09-19T06:18:56;25.30;;;13.70;;
66800;SDS011;53703;50.326;19.122;2023-09-19T06:21:51;23.40;;;13.50;;
66800;SDS011;53703;50.326;19.122;2023-09-19T06:24:37;24.40;;;14.90;;
66800;SDS011;53703;50.326;19.122;2023-09-19T06:27:31;21.80;;;13.60;;
66800;SDS011;53703;50.326;19.122;2023-09-19T06:30:28;20.90;;;13.10;;
66800;SDS011;53703;50.326;19.122;2023-09-19T06:33:24;23.30;;;13.80;;
66800;SDS011;53703;50.326;19.122;2023-09-19T06:36:18;24.40;;;13.80;;
66800;SDS011;53703;50.326;19.122;2023-09-19T06:39:14;21.30;;;13.00;;
66800;SDS011;53703;50.326;19.122;2023-09-19T06:42:09;23.10;;;12.30;;
66800;SDS011;53703;50.326;19.122;2023-09-19T06:45:04;21.30;;;12.30;;
66800;SDS011;53703;50.326;19.122;2023-09-19T06:47:59;20.30;;;12.20;;
66800;SDS011;53703;50.326;19.122;2023-09-19T06:50:55;18.30;;;11.50;;
66800;SDS011;53703;50.326;19.122;2023-09-19T06:53:56;18.20;;;11.10;;
66800;SDS011;53703;50.326;19.122;2023-09-19T06:56:51;18.90;;;11.30;;
66800;SDS011;53703;50.326;19.122;2023-09-19T06:59:46;24.20;;;11.60;;
66800;SDS011;53703;50.326;19.122;2023-09-19T07:02:41;20.40;;;12.00;;
66800;SDS011;53703;50.326;19.122;2023-09-19T07:05:36;27.60;;;13.20;;
66800;SDS011;53703;50.326;19.122;2023-09-19T07:08:31;21.10;;;11.30;;
66800;SDS011;53703;50.326;19.122;2023-09-19T07:11:25;21.00;;;11.60;;
66800;SDS011;53703;50.326;19.122;2023-09-19T07:14:20;17.10;;;10.60;;
66800;SDS011;53703;50.326;19.122;2023-09-19T07:17:14;19.10;;;10.60;;
66800;SDS011;53703;50.326;19.122;2023-09-19T07:20:11;14.80;;;9.60;;
66800;SDS011;53703;50.326;19.122;2023-09-19T07:23:07;15.50;;;8.90;;
66800;SDS011;53703;50.326;19.122;2023-09-19T07:26:01;14.50;;;9.30;;
66800;SDS011;53703;50.326;19.122;2023-09-19T07:28:56;18.70;;;9.50;;
66800;SDS011;53703;50.326;19.122;2023-09-19T07:31:51;15.10;;;9.10;;
66800;SDS011;53703;50.326;19.122;2023-09-19T07:34:45;15.90;;;9.20;;
66800;SDS011;53703;50.326;19.122;2023-09-19T07:37:40;14.90;;;9.40;;
66800;SDS011;53703;50.326;19.122;2023-09-19T07:40:34;15.90;;;8.70;;
66800;SDS011;53703;50.326;19.122;2023-09-19T07:43:28;17.20;;;8.70;;
66800;SDS011;53703;50.326;19.122;2023-09-19T07:46:22;17.40;;;9.10;;
66800;SDS011;53703;50.326;19.122;2023-09-19T07:49:17;11.50;;;7.30;;
66800;SDS011;53703;50.326;19.122;2023-09-19T07:52:11;14.00;;;7.50;;
66800;SDS011;53703;50.326;19.122;2023-09-19T07:55:07;13.50;;;7.30;;
66800;SDS011;53703;50.326;19.122;2023-09-19T07:58:02;12.20;;;6.90;;
66800;SDS011;53703;50.326;19.122;2023-09-19T08:01:01;13.60;;;7.50;;
66800;SDS011;53703;50.326;19.122;2023-09-19T08:03:38;14.20;;;7.70;;
66800;SDS011;53703;50.326;19.122;2023-09-19T08:06:34;11.90;;;5.00;;
66800;SDS011;53703;50.326;19.122;2023-09-19T08:09:18;12.20;;;4.80;;
66800;SDS011;53703;50.326;19.122;2023-09-19T08:15:09;7.30;;;4.90;;
66800;SDS011;53703;50.326;19.122;2023-09-19T08:18:04;11.10;;;5.20;;
66800;SDS011;53703;50.326;19.122;2023-09-19T08:20:59;12.30;;;5.90;;
66800;SDS011;53703;50.326;19.122;2023-09-19T08:23:53;11.40;;;5.40;;
66800;SDS011;53703;50.326;19.122;2023-09-19T08:26:47;9.20;;;4.70;;
66800;SDS011;53703;50.326;19.122;2023-09-19T08:29:27;8.90;;;4.60;;
66800;SDS011;53703;50.326;19.122;2023-09-19T08:32:22;7.90;;;4.50;;
66800;SDS011;53703;50.326;19.122;2023-09-19T08:35:18;8.10;;;4.30;;
66800;SDS011;53703;50.326;19.122;2023-09-19T08:38:12;7.50;;;4.00;;
66800;SDS011;53703;50.326;19.122;2023-09-19T08:41:06;6.40;;;4.10;;
66800;SDS011;53703;50.326;19.122;2023-09-19T08:44:01;6.50;;;4.00;;
66800;SDS011;53703;50.326;19.122;2023-09-19T08:47:04;8.20;;;4.10;;
66800;SDS011;53703;50.326;19.122;2023-09-19T08:49:51;8.90;;;4.40;;
66800;SDS011;53703;50.326;19.122;2023-09-19T08:52:54;8.10;;;4.40;;
66800;SDS011;53703;50.326;19.122;2023-09-19T08:55:52;9.90;;;4.60;;
66800;SDS011;53703;50.326;19.122;2023-09-19T08:58:50;8.30;;;4.50;;
66800;SDS011;53703;50.326;19.122;2023-09-19T09:01:48;7.00;;;4.20;;
66800;SDS011;53703;50.326;19.122;2023-09-19T09:04:45;6.70;;;4.10;;
66800;SDS011;53703;50.326;19.122;2023-09-19T09:07:41;10.00;;;4.20;;
66800;SDS011;53703;50.326;19.122;2023-09-19T09:10:36;8.10;;;4.40;;
66800;SDS011;53703;50.326;19.122;2023-09-19T09:13:32;10.10;;;4.90;;
66800;SDS011;53703;50.326;19.122;2023-09-19T09:16:28;7.80;;;4.10;;
66800;SDS011;53703;50.326;19.122;2023-09-19T09:19:06;7.80;;;4.40;;
66800;SDS011;53703;50.326;19.122;2023-09-19T09:21:50;10.20;;;4.30;;
66800;SDS011;53703;50.326;19.122;2023-09-19T09:24:54;8.10;;;4.80;;
66800;SDS011;53703;50.326;19.122;2023-09-19T09:27:49;9.80;;;5.00;;
66800;SDS011;53703;50.326;19.122;2023-09-19T09:33:36;9.70;;;5.20;;
66800;SDS011;53703;50.326;19.122;2023-09-19T09:36:38;7.80;;;4.60;;
66800;SDS011;53703;50.326;19.122;2023-09-19T09:39:33;7.90;;;4.80;;
66800;SDS011;53703;50.326;19.122;2023-09-19T09:42:34;9.00;;;4.90;;
66800;SDS011;53703;50.326;19.122;2023-09-19T09:45:30;10.70;;;5.20;;
66800;SDS011;53703;50.326;19.122;2023-09-19T09:48:29;10.70;;;4.60;;
66800;SDS011;53703;50.326;19.122;2023-09-19T09:51:31;13.20;;;5.00;;
66800;SDS011;53703;50.326;19.122;2023-09-19T09:54:27;9.50;;;4.90;;
66800;SDS011;53703;50.326;19.122;2023-09-19T09:57:27;9.70;;;5.00;;
66800;SDS011;53703;50.326;19.122;2023-09-19T10:00:06;6.50;;;4.20;;
66800;SDS011;53703;50.326;19.122;2023-09-19T10:03:16;9.20;;;4.40;;
66800;SDS011;53703;50.326;19.122;2023-09-19T10:06:15;8.40;;;4.50;;
66800;SDS011;53703;50.326;19.122;2023-09-19T10:09:18;8.10;;;4.50;;
66800;SDS011;53703;50.326;19.122;2023-09-19T10:12:20;7.70;;;4.50;;
66800;SDS011;53703;50.326;19.122;2023-09-19T10:15:17;7.30;;;4.60;;
66800;SDS011;53703;50.326;19.122;2023-09-19T10:18:12;10.30;;;5.10;;
66800;SDS011;53703;50.326;19.122;2023-09-19T10:21:11;8.20;;;5.10;;
66800;SDS011;53703;50.326;19.122;2023-09-19T10:24:06;8.20;;;5.10;;
66800;SDS011;53703;50.326;19.122;2023-09-19T10:27:03;8.40;;;5.20;;
66800;SDS011;53703;50.326;19.122;2023-09-19T10:30:00;10.10;;;4.90;;
66800;SDS011;53703;50.326;19.122;2023-09-19T10:32:45;7.40;;;5.00;;
66800;SDS011;53703;50.326;19.122;2023-09-19T10:35:47;8.20;;;5.60;;
66800;SDS011;53703;50.326;19.122;2023-09-19T10:38:43;10.00;;;5.10;;
66800;SDS011;53703;50.326;19.122;2023-09-19T10:41:42;8.70;;;4.80;;
66800;SDS011;53703;50.326;19.122;2023-09-19T10:44:44;8.30;;;4.70;;
66800;SDS011;53703;50.326;19.122;2023-09-19T10:47:41;7.30;;;4.80;;
66800;SDS011;53703;50.326;19.122;2023-09-19T10:50:46;9.50;;;4.70;;
66800;SDS011;53703;50.326;19.122;2023-09-19T10:53:52;7.60;;;4.40;;
66800;SDS011;53703;50.326;19.122;2023-09-19T10:56:52;7.00;;;4.30;;
66800;SDS011;53703;50.326;19.122;2023-09-19T11:00:06;7.80;;;4.40;;
66800;SDS011;53703;50.326;19.122;2023-09-19T11:03:25;7.90;;;4.40;;
66800;SDS011;53703;50.326;19.122;2023-09-19T11:06:22;8.30;;;4.30;;
66800;SDS011;53703;50.326;19.122;2023-09-19T11:09:16;8.50;;;4.30;;
66800;SDS011;53703;50.326;19.122;2023-09-19T11:12:26;9.60;;;4.40;;
66800;SDS011;53703;50.326;19.122;2023-09-19T11:19:15;7.30;;;3.70;;
66800;SDS011;53703;50.326;19.122;2023-09-19T11:22:09;6.00;;;3.40;;
66800;SDS011;53703;50.326;19.122;2023-09-19T11:28:39;7.70;;;3.20;;
66800;SDS011;53703;50.326;19.122;2023-09-19T11:31:53;5.90;;;3.40;;
66800;SDS011;53703;50.326;19.122;2023-09-19T11:34:51;5.20;;;3.30;;
66800;SDS011;53703;50.326;19.122;2023-09-19T11:38:02;7.50;;;3.60;;
66800;SDS011;53703;50.326;19.122;2023-09-19T11:41:40;5.80;;;3.30;;
66800;SDS011;53703;50.326;19.122;2023-09-19T11:44:36;5.00;;;2.70;;
66800;SDS011;53703;50.326;19.122;2023-09-19T11:47:32;6.80;;;3.20;;
66800;SDS011;53703;50.326;19.122;2023-09-19T11:50:28;4.00;;;2.90;;
66800;SDS011;53703;50.326;19.122;2023-09-19T11:53:11;7.20;;;3.80;;
66800;SDS011;53703;50.326;19.122;2023-09-19T11:56:08;6.40;;;3.80;;
66800;SDS011;53703;50.326;19.122;2023-09-19T11:59:06;4.20;;;2.90;;
66800;SDS011;53703;50.326;19.122;2023-09-19T12:02:04;6.50;;;2.90;;
66800;SDS011;53703;50.326;19.122;2023-09-19T12:05:10;5.60;;;3.30;;
66800;SDS011;53703;50.326;19.122;2023-09-19T12:08:05;5.50;;;3.50;;
66800;SDS011;53703;50.326;19.122;2023-09-19T12:11:00;7.00;;;3.40;;
66800;SDS011;53703;50.326;19.122;2023-09-19T12:13:55;8.00;;;3.60;;
66800;SDS011;53703;50.326;19.122;2023-09-19T12:16:54;6.30;;;3.80;;
66800;SDS011;53703;50.326;19.122;2023-09-19T12:19:55;5.50;;;3.70;;
66800;SDS011;53703;50.326;19.122;2023-09-19T12:22:51;13.30;;;3.90;;
66800;SDS011;53703;50.326;19.122;2023-09-19T12:25:46;5.90;;;3.60;;
66800;SDS011;53703;50.326;19.122;2023-09-19T12:28:44;7.70;;;4.20;;
66800;SDS011;53703;50.326;19.122;2023-09-19T12:31:38;7.40;;;4.10;;
66800;SDS011;53703;50.326;19.122;2023-09-19T12:34:42;6.10;;;3.60;;
66800;SDS011;53703;50.326;19.122;2023-09-19T12:37:36;6.20;;;3.50;;
66800;SDS011;53703;50.326;19.122;2023-09-19T12:40:37;5.30;;;3.70;;
66800;SDS011;53703;50.326;19.122;2023-09-19T12:43:33;7.50;;;3.80;;
66800;SDS011;53703;50.326;19.122;2023-09-19T12:46:22;7.20;;;3.90;;
66800;SDS011;53703;50.326;19.122;2023-09-19T12:49:18;8.10;;;4.50;;
66800;SDS011;53703;50.326;19.122;2023-09-19T12:52:13;9.80;;;5.20;;
66800;SDS011;53703;50.326;19.122;2023-09-19T12:55:20;8.90;;;4.70;;
66800;SDS011;53703;50.326;19.122;2023-09-19T12:58:15;8.90;;;4.70;;
66800;SDS011;53703;50.326;19.122;2023-09-19T13:01:16;7.80;;;4.70;;
66800;SDS011;53703;50.326;19.122;2023-09-19T13:04:15;6.80;;;4.70;;
66800;SDS011;53703;50.326;19.122;2023-09-19T13:07:43;8.00;;;4.70;;
66800;SDS011;53703;50.326;19.122;2023-09-19T13:11:00;8.40;;;5.00;;
66800;SDS011;53703;50.326;19.122;2023-09-19T13:14:15;8.50;;;5.10;;
66800;SDS011;53703;50.326;19.122;2023-09-19T13:17:11;9.90;;;5.20;;
66800;SDS011;53703;50.326;19.122;2023-09-19T13:20:19;6.90;;;4.60;;
66800;SDS011;53703;50.326;19.122;2023-09-19T13:23:30;8.50;;;5.10;;
66800;SDS011;53703;50.326;19.122;2023-09-19T13:26:24;7.10;;;4.70;;
66800;SDS011;53703;50.326;19.122;2023-09-19T13:29:02;8.30;;;4.60;;
66800;SDS011;53703;50.326;19.122;2023-09-19T13:31:56;6.80;;;4.50;;
66800;SDS011;53703;50.326;19.122;2023-09-19T13:34:50;8.40;;;4.60;;
66800;SDS011;53703;50.326;19.122;2023-09-19T13:37:29;8.20;;;4.30;;
66800;SDS011;53703;50.326;19.122;2023-09-19T13:40:25;7.30;;;4.60;;
66800;SDS011;53703;50.326;19.122;2023-09-19T13:43:21;8.60;;;5.10;;
66800;SDS011;53703;50.326;19.122;2023-09-19T13:46:16;6.10;;;4.20;;
66800;SDS011;53703;50.326;19.122;2023-09-19T13:49:16;7.80;;;4.70;;
66800;SDS011;53703;50.326;19.122;2023-09-19T13:52:13;8.00;;;4.20;;
66800;SDS011;53703;50.326;19.122;2023-09-19T13:55:08;7.00;;;4.10;;
66800;SDS011;53703;50.326;19.122;2023-09-19T13:58:02;5.50;;;4.10;;
66800;SDS011;53703;50.326;19.122;2023-09-19T14:00:59;6.00;;;4.00;;
66800;SDS011;53703;50.326;19.122;2023-09-19T14:03:54;5.70;;;3.70;;
66800;SDS011;53703;50.326;19.122;2023-09-19T14:06:48;6.60;;;3.70;;
66800;SDS011;53703;50.326;19.122;2023-09-19T14:09:43;9.10;;;3.50;;
66800;SDS011;53703;50.326;19.122;2023-09-19T14:12:20;6.50;;;3.90;;
66800;SDS011;53703;50.326;19.122;2023-09-19T14:15:14;8.20;;;3.30;;
66800;SDS011;53703;50.326;19.122;2023-09-19T14:18:09;5.80;;;3.20;;
66800;SDS011;53703;50.326;19.122;2023-09-19T14:21:05;5.50;;;3.60;;
66800;SDS011;53703;50.326;19.122;2023-09-19T14:24:02;4.40;;;3.10;;
66800;SDS011;53703;50.326;19.122;2023-09-19T14:27:00;6.10;;;3.40;;
66800;SDS011;53703;50.326;19.122;2023-09-19T14:29:55;5.40;;;3.40;;
66800;SDS011;53703;50.326;19.122;2023-09-19T14:32:49;6.40;;;3.80;;
66800;SDS011;53703;50.326;19.122;2023-09-19T14:35:43;4.80;;;3.20;;
66800;SDS011;53703;50.326;19.122;2023-09-19T14:38:38;6.20;;;3.40;;
66800;SDS011;53703;50.326;19.122;2023-09-19T14:41:32;4.00;;;3.10;;
66800;SDS011;53703;50.326;19.122;2023-09-19T14:44:27;5.40;;;3.40;;
66800;SDS011;53703;50.326;19.122;2023-09-19T14:47:21;7.50;;;3.20;;
66800;SDS011;53703;50.326;19.122;2023-09-19T14:50:15;5.30;;;2.80;;
66800;SDS011;53703;50.326;19.122;2023-09-19T14:53:10;4.70;;;3.10;;
66800;SDS011;53703;50.326;19.122;2023-09-19T14:56:05;4.20;;;2.50;;
66800;SDS011;53703;50.326;19.122;2023-09-19T14:59:00;4.40;;;2.80;;
66800;SDS011;53703;50.326;19.122;2023-09-19T15:01:55;4.00;;;3.00;;
66800;SDS011;53703;50.326;19.122;2023-09-19T15:04:45;4.70;;;2.90;;
66800;SDS011;53703;50.326;19.122;2023-09-19T15:07:30;5.90;;;3.00;;
66800;SDS011;53703;50.326;19.122;2023-09-19T15:10:24;5.10;;;2.80;;
66800;SDS011;53703;50.326;19.122;2023-09-19T15:13:03;4.90;;;2.90;;
66800;SDS011;53703;50.326;19.122;2023-09-19T15:16:01;4.20;;;2.70;;
66800;SDS011;53703;50.326;19.122;2023-09-19T15:19:00;4.70;;;2.80;;
66800;SDS011;53703;50.326;19.122;2023-09-19T15:21:54;5.10;;;3.00;;
66800;SDS011;53703;50.326;19.122;2023-09-19T15:24:48;3.20;;;2.40;;
66800;SDS011;53703;50.326;19.122;2023-09-19T15:27:43;4.20;;;2.30;;
66800;SDS011;53703;50.326;19.122;2023-09-19T15:30:39;3.30;;;2.60;;
66800;SDS011;53703;50.326;19.122;2023-09-19T15:33:34;5.20;;;2.90;;
66800;SDS011;53703;50.326;19.122;2023-09-19T15:36:29;3.40;;;2.50;;
66800;SDS011;53703;50.326;19.122;2023-09-19T15:39:23;3.70;;;2.20;;
66800;SDS011;53703;50.326;19.122;2023-09-19T15:42:17;4.20;;;2.40;;
66800;SDS011;53703;50.326;19.122;2023-09-19T15:45:12;3.90;;;2.10;;
66800;SDS011;53703;50.326;19.122;2023-09-19T15:48:07;4.60;;;2.10;;
66800;SDS011;53703;50.326;19.122;2023-09-19T15:51:05;4.00;;;2.40;;
66800;SDS011;53703;50.326;19.122;2023-09-19T15:54:00;6.10;;;2.80;;
66800;SDS011;53703;50.326;19.122;2023-09-19T15:56:59;3.60;;;2.10;;
66800;SDS011;53703;50.326;19.122;2023-09-19T15:59:53;6.00;;;2.40;;
66800;SDS011;53703;50.326;19.122;2023-09-19T16:02:49;3.90;;;2.70;;
66800;SDS011;53703;50.326;19.122;2023-09-19T16:05:46;4.30;;;3.10;;
66800;SDS011;53703;50.326;19.122;2023-09-19T16:08:42;4.50;;;2.60;;
66800;SDS011;53703;50.326;19.122;2023-09-19T16:11:38;4.20;;;2.30;;
66800;SDS011;53703;50.326;19.122;2023-09-19T16:14:33;4.50;;;2.20;;
66800;SDS011;53703;50.326;19.122;2023-09-19T16:17:27;6.00;;;2.20;;
66800;SDS011;53703;50.326;19.122;2023-09-19T16:20:06;3.70;;;2.30;;
66800;SDS011;53703;50.326;19.122;2023-09-19T16:23:03;4.70;;;2.10;;
66800;SDS011;53703;50.326;19.122;2023-09-19T16:26:03;5.40;;;2.30;;
66800;SDS011;53703;50.326;19.122;2023-09-19T16:28:59;5.20;;;2.70;;
66800;SDS011;53703;50.326;19.122;2023-09-19T16:31:43;4.10;;;2.40;;
66800;SDS011;53703;50.326;19.122;2023-09-19T16:34:38;4.20;;;1.90;;
66800;SDS011;53703;50.326;19.122;2023-09-19T16:37:33;4.70;;;2.20;;
66800;SDS011;53703;50.326;19.122;2023-09-19T16:40:29;4.80;;;2.30;;
66800;SDS011;53703;50.326;19.122;2023-09-19T16:43:08;5.20;;;2.60;;
66800;SDS011;53703;50.326;19.122;2023-09-19T16:46:04;5.20;;;2.80;;
66800;SDS011;53703;50.326;19.122;2023-09-19T16:49:03;5.10;;;2.60;;
66800;SDS011;53703;50.326;19.122;2023-09-19T16:51:58;4.40;;;2.40;;
66800;SDS011;53703;50.326;19.122;2023-09-19T16:54:52;4.40;;;2.40;;
66800;SDS011;53703;50.326;19.122;2023-09-19T16:57:46;5.30;;;2.70;;
66800;SDS011;53703;50.326;19.122;2023-09-19T17:00:41;4.60;;;3.00;;
66800;SDS011;53703;50.326;19.122;2023-09-19T17:03:37;6.50;;;2.20;;
66800;SDS011;53703;50.326;19.122;2023-09-19T17:06:32;3.80;;;2.30;;
66800;SDS011;53703;50.326;19.122;2023-09-19T17:09:27;4.50;;;2.30;;
66800;SDS011;53703;50.326;19.122;2023-09-19T17:12:23;5.00;;;2.50;;
66800;SDS011;53703;50.326;19.122;2023-09-19T17:15:17;6.00;;;2.60;;
66800;SDS011;53703;50.326;19.122;2023-09-19T17:18:12;5.40;;;2.50;;
66800;SDS011;53703;50.326;19.122;2023-09-19T17:21:06;4.60;;;2.20;;
66800;SDS011;53703;50.326;19.122;2023-09-19T17:23:45;4.10;;;2.10;;
66800;SDS011;53703;50.326;19.122;2023-09-19T17:26:40;6.70;;;2.40;;